createdAt,value
2023-08-19T00:01:56.059Z,12.23
2023-08-19T00:04:23.187Z,11.70
2023-08-19T00:06:50.212Z,11.50
2023-08-19T00:09:17.077Z,11.90
2023-08-19T00:11:44.056Z,12.17
2023-08-19T00:14:11.037Z,12.07
2023-08-19T00:16:37.932Z,12.80
2023-08-19T00:19:05.270Z,11.85
2023-08-19T00:21:32.090Z,11.15
2023-08-19T00:23:59.024Z,12.20
2023-08-19T00:26:29.183Z,12.57
2023-08-19T00:28:56.123Z,11.90
2023-08-19T00:31:24.363Z,11.27
2023-08-19T00:33:51.323Z,12.10
2023-08-19T00:36:18.429Z,12.67
2023-08-19T00:38:46.870Z,12.57
2023-08-19T00:41:14.237Z,12.15
2023-08-19T00:43:41.275Z,12.10
2023-08-19T00:46:09.579Z,12.38
2023-08-19T00:48:37.313Z,12.40
2023-08-19T00:51:06.675Z,12.85
2023-08-19T00:53:35.366Z,12.20
2023-08-19T00:56:03.203Z,13.18
2023-08-19T00:58:30.027Z,12.75
2023-08-19T01:00:59.045Z,12.97
2023-08-19T01:03:26.477Z,12.48
2023-08-19T01:06:26.798Z,12.90
2023-08-19T01:09:18.716Z,13.45
2023-08-19T01:11:52.688Z,14.75
2023-08-19T01:14:37.850Z,14.20
2023-08-19T01:17:06.546Z,14.95
2023-08-19T01:19:33.818Z,14.55
2023-08-19T01:22:06.275Z,14.63
2023-08-19T01:24:37.070Z,14.93
2023-08-19T01:27:05.610Z,14.50
2023-08-19T01:29:32.557Z,14.55
2023-08-19T01:31:59.638Z,15.25
2023-08-19T01:34:27.109Z,15.43
2023-08-19T01:37:02.447Z,15.35
2023-08-19T01:39:30.174Z,15.20
2023-08-19T01:41:57.363Z,15.27
2023-08-19T01:44:25.067Z,16.15
2023-08-19T01:46:52.574Z,15.88
2023-08-19T01:49:20.471Z,15.65
2023-08-19T01:51:50.733Z,15.57
2023-08-19T01:54:17.536Z,15.90
2023-08-19T01:56:44.449Z,15.55
2023-08-19T01:59:11.373Z,15.63
2023-08-19T02:01:38.355Z,15.63
2023-08-19T02:04:05.525Z,15.27
2023-08-19T02:06:32.473Z,15.75
2023-08-19T02:08:59.312Z,16.38
2023-08-19T02:11:26.314Z,16.48
2023-08-19T02:13:53.256Z,16.10
2023-08-19T02:16:20.156Z,15.77
2023-08-19T02:18:47.175Z,16.30
2023-08-19T02:21:16.085Z,16.00
2023-08-19T02:23:43.246Z,16.35
2023-08-19T02:26:12.337Z,15.85
2023-08-19T02:28:39.501Z,16.97
2023-08-19T02:31:06.593Z,16.48
2023-08-19T02:33:33.522Z,17.38
2023-08-19T02:36:00.514Z,16.63
2023-08-19T02:38:27.473Z,16.60
2023-08-19T02:40:54.569Z,16.07
2023-08-19T02:43:21.554Z,16.27
2023-08-19T02:45:48.967Z,15.00
2023-08-19T02:48:16.566Z,16.02
2023-08-19T02:50:43.872Z,16.40
2023-08-19T02:53:10.699Z,17.10
2023-08-19T02:55:44.044Z,16.25
2023-08-19T02:58:14.588Z,16.55
2023-08-19T03:00:41.731Z,16.00
2023-08-19T03:03:08.817Z,16.50
2023-08-19T03:05:38.817Z,16.83
2023-08-19T03:08:07.035Z,16.30
2023-08-19T03:10:41.602Z,16.08
2023-08-19T03:13:09.429Z,15.77
2023-08-19T03:15:38.764Z,16.10
2023-08-19T03:18:06.600Z,16.43
2023-08-19T03:20:34.291Z,16.88
2023-08-19T03:23:01.451Z,15.85
2023-08-19T03:25:28.429Z,16.65
2023-08-19T03:27:55.416Z,16.35
2023-08-19T03:30:22.319Z,17.93
2023-08-19T03:32:49.196Z,16.42
2023-08-19T03:35:16.594Z,16.58
2023-08-19T03:37:44.520Z,16.98
2023-08-19T03:40:11.808Z,16.65
2023-08-19T03:42:38.814Z,16.13
2023-08-19T03:45:06.413Z,17.02
2023-08-19T03:47:33.587Z,17.13
2023-08-19T03:50:00.598Z,17.08
2023-08-19T03:52:28.428Z,15.45
2023-08-19T03:54:55.396Z,16.27
2023-08-19T03:57:22.222Z,16.17
2023-08-19T03:59:52.284Z,15.90
2023-08-19T04:02:19.616Z,15.57
2023-08-19T04:04:57.940Z,16.60
2023-08-19T04:07:24.825Z,15.10
2023-08-19T04:09:51.922Z,16.27
2023-08-19T04:12:18.689Z,16.33
2023-08-19T04:14:45.506Z,15.93
2023-08-19T04:17:12.679Z,16.45
2023-08-19T04:19:39.556Z,16.17
2023-08-19T04:22:06.542Z,16.77
2023-08-19T04:24:37.897Z,16.48
2023-08-19T04:27:05.088Z,16.77
2023-08-19T04:29:34.032Z,16.30
2023-08-19T04:32:02.398Z,15.87
2023-08-19T04:34:30.469Z,16.00
2023-08-19T04:36:59.798Z,14.98
2023-08-19T04:39:27.752Z,15.05
2023-08-19T04:42:00.813Z,15.32
2023-08-19T04:44:28.062Z,15.20
2023-08-19T04:46:55.140Z,15.57
2023-08-19T04:49:22.295Z,14.90
2023-08-19T04:51:49.497Z,15.80
2023-08-19T04:54:16.432Z,15.35
2023-08-19T04:56:43.403Z,16.30
2023-08-19T04:59:10.315Z,15.57
2023-08-19T05:01:37.249Z,15.23
2023-08-19T05:04:04.360Z,15.95
2023-08-19T05:06:31.411Z,16.60
2023-08-19T05:08:59.066Z,16.67
2023-08-19T05:11:26.151Z,15.98
2023-08-19T05:13:56.737Z,16.60
2023-08-19T05:16:23.643Z,16.30
2023-08-19T05:19:04.184Z,15.88
2023-08-19T05:21:31.191Z,16.07
2023-08-19T05:23:58.617Z,15.95
2023-08-19T05:26:25.705Z,16.75
2023-08-19T05:28:52.684Z,16.23
2023-08-19T05:31:19.666Z,16.65
2023-08-19T05:33:46.539Z,16.03
2023-08-19T05:36:13.389Z,15.90
2023-08-19T05:38:40.259Z,15.77
2023-08-19T05:41:07.214Z,15.75
2023-08-19T05:43:34.145Z,15.35
2023-08-19T05:46:04.900Z,14.50
2023-08-19T05:48:32.331Z,15.00
2023-08-19T05:50:59.694Z,15.52
2023-08-19T05:53:27.331Z,15.85
2023-08-19T05:55:54.199Z,14.90
2023-08-19T05:58:21.333Z,14.90
2023-08-19T06:00:48.312Z,14.98
2023-08-19T06:03:15.375Z,14.32
2023-08-19T06:05:42.608Z,14.35
2023-08-19T06:08:09.530Z,14.55
2023-08-19T06:10:36.916Z,14.90
2023-08-19T06:13:04.177Z,13.93
2023-08-19T06:15:31.146Z,14.05
2023-08-19T06:17:58.092Z,14.68
2023-08-19T06:20:25.288Z,14.27
2023-08-19T06:22:52.259Z,14.60
2023-08-19T06:25:19.127Z,14.52
2023-08-19T06:27:46.072Z,14.02
2023-08-19T06:30:13.899Z,14.82
2023-08-19T06:32:41.038Z,14.57
2023-08-19T06:35:08.556Z,14.00
2023-08-19T06:37:41.079Z,14.27
2023-08-19T06:40:12.201Z,14.30
2023-08-19T06:42:40.394Z,14.23
2023-08-19T06:45:08.394Z,14.38
2023-08-19T06:47:38.305Z,14.07
2023-08-19T06:50:05.923Z,13.07
2023-08-19T06:52:33.025Z,13.43
2023-08-19T06:55:00.065Z,13.02
2023-08-19T06:57:35.184Z,12.73
2023-08-19T07:00:10.811Z,12.87
2023-08-19T07:02:39.032Z,13.10
2023-08-19T07:05:13.805Z,12.63
2023-08-19T07:07:48.607Z,12.85
2023-08-19T07:10:17.347Z,12.77
2023-08-19T07:12:45.513Z,13.40
2023-08-19T07:15:13.476Z,13.05
2023-08-19T07:17:45.305Z,12.80
2023-08-19T07:20:16.382Z,12.85
2023-08-19T07:22:45.439Z,11.35
2023-08-19T07:25:13.211Z,10.97
2023-08-19T07:27:40.359Z,11.45
2023-08-19T07:30:08.248Z,10.68
2023-08-19T07:32:36.787Z,10.77
2023-08-19T07:35:05.325Z,10.35
2023-08-19T07:37:33.082Z,10.20
2023-08-19T07:40:00.485Z,10.05
2023-08-19T07:42:30.818Z,10.40
2023-08-19T07:44:57.662Z,9.38
2023-08-19T07:47:24.543Z,9.65
2023-08-19T07:49:51.481Z,9.77
2023-08-19T07:52:18.426Z,9.98
2023-08-19T07:54:47.263Z,9.40
2023-08-19T07:57:15.130Z,10.20
2023-08-19T07:59:42.003Z,9.75
2023-08-19T08:02:09.027Z,9.70
2023-08-19T08:04:35.850Z,9.32
2023-08-19T08:07:02.801Z,9.15
2023-08-19T08:09:29.611Z,9.88
2023-08-19T08:11:56.545Z,9.93
2023-08-19T08:14:23.453Z,9.80
2023-08-19T08:16:50.480Z,10.20
2023-08-19T08:19:17.269Z,10.45
2023-08-19T08:21:44.049Z,9.88
2023-08-19T08:24:11.025Z,10.43
2023-08-19T08:26:37.879Z,10.53
2023-08-19T08:29:04.912Z,11.00
2023-08-19T08:31:31.831Z,10.30
2023-08-19T08:33:58.755Z,11.00
2023-08-19T08:36:25.803Z,10.85
2023-08-19T08:38:52.745Z,11.03
2023-08-19T08:41:19.829Z,11.27
2023-08-19T08:43:49.654Z,11.13
2023-08-19T08:46:21.232Z,11.00
2023-08-19T08:48:48.393Z,11.68
2023-08-19T08:51:17.053Z,10.90
2023-08-19T08:53:43.902Z,11.27
2023-08-19T08:56:11.579Z,11.85
2023-08-19T08:58:38.587Z,11.45
2023-08-19T09:01:07.140Z,12.02
2023-08-19T09:03:35.049Z,11.37
2023-08-19T09:06:12.074Z,11.50
2023-08-19T09:08:48.330Z,10.85
2023-08-19T09:11:22.337Z,12.10
2023-08-19T09:13:54.905Z,11.63
2023-08-19T09:16:22.382Z,11.07
2023-08-19T09:18:49.397Z,11.55
2023-08-19T09:21:17.057Z,11.38
2023-08-19T09:23:44.168Z,11.52
2023-08-19T09:26:11.814Z,11.82
2023-08-19T09:28:39.451Z,11.37
2023-08-19T09:31:22.847Z,10.80
2023-08-19T09:33:50.106Z,10.18
2023-08-19T09:36:17.389Z,9.60
2023-08-19T09:38:44.358Z,9.60
2023-08-19T09:41:13.855Z,9.53
2023-08-19T09:43:41.560Z,9.38
2023-08-19T09:46:09.327Z,9.50
2023-08-19T09:48:36.583Z,9.48
2023-08-19T09:51:04.044Z,9.23
2023-08-19T09:53:33.972Z,9.17
2023-08-19T09:56:00.921Z,7.97
2023-08-19T09:58:27.914Z,6.90
2023-08-19T10:00:55.346Z,6.53
2023-08-19T10:03:22.947Z,7.00
2023-08-19T10:05:54.415Z,6.73
2023-08-19T10:08:26.383Z,6.32
2023-08-19T10:10:53.532Z,5.80
2023-08-19T10:13:23.201Z,5.57
2023-08-19T10:15:52.559Z,5.13
2023-08-19T10:18:23.056Z,5.00
2023-08-19T10:20:56.373Z,4.57
2023-08-19T10:23:25.599Z,4.40
2023-08-19T10:25:53.034Z,3.97
2023-08-19T10:28:30.057Z,3.70
2023-08-19T10:31:11.504Z,3.50
2023-08-19T10:33:44.122Z,4.13
2023-08-19T10:36:15.767Z,3.55
2023-08-19T10:38:57.846Z,3.70
2023-08-19T10:41:32.009Z,3.90
2023-08-19T10:44:12.665Z,3.83
2023-08-19T10:46:46.324Z,4.07
2023-08-19T10:49:14.406Z,4.28
2023-08-19T10:51:48.577Z,4.35
2023-08-19T10:54:31.232Z,4.00
2023-08-19T10:57:19.140Z,3.80
2023-08-19T10:59:47.817Z,3.85
2023-08-19T11:02:15.319Z,3.58
2023-08-19T11:04:42.442Z,4.00
2023-08-19T11:07:10.059Z,3.85
2023-08-19T11:09:37.681Z,4.20
2023-08-19T11:12:04.954Z,4.18
2023-08-19T11:14:32.007Z,4.32
2023-08-19T11:16:59.085Z,4.07
2023-08-19T11:19:26.627Z,4.47
2023-08-19T11:21:53.863Z,4.40
2023-08-19T11:24:21.000Z,4.32
2023-08-19T11:26:49.776Z,4.72
2023-08-19T11:29:17.679Z,4.40
2023-08-19T11:31:44.878Z,4.40
2023-08-19T11:34:13.301Z,4.60
2023-08-19T11:36:43.743Z,4.90
2023-08-19T11:39:12.554Z,5.72
2023-08-19T11:41:40.444Z,4.75
2023-08-19T11:44:08.147Z,4.93
2023-08-19T11:46:36.733Z,5.10
2023-08-19T11:49:10.588Z,5.90
2023-08-19T11:51:38.674Z,6.32
2023-08-19T11:54:09.182Z,5.90
2023-08-19T11:56:50.304Z,6.28
2023-08-19T11:59:18.544Z,6.10
2023-08-19T12:01:48.933Z,6.07
2023-08-19T12:04:16.994Z,4.93
2023-08-19T12:06:48.250Z,5.00
2023-08-19T12:09:19.444Z,4.20
2023-08-19T12:12:02.080Z,3.30
2023-08-19T12:14:28.858Z,3.13
2023-08-19T12:16:55.779Z,2.88
2023-08-19T12:19:22.708Z,2.60
2023-08-19T12:21:49.676Z,2.80
2023-08-19T12:24:16.601Z,2.50
2023-08-19T12:26:43.412Z,2.08
2023-08-19T12:29:10.347Z,2.05
2023-08-19T12:31:37.406Z,1.60
2023-08-19T12:34:04.737Z,1.67
2023-08-19T12:36:31.868Z,1.63
2023-08-19T12:38:58.685Z,1.45
2023-08-19T12:41:25.663Z,1.60
2023-08-19T12:43:52.607Z,1.70
2023-08-19T12:46:21.322Z,1.50
2023-08-19T12:48:48.150Z,1.80
2023-08-19T12:51:15.013Z,1.55
2023-08-19T12:53:42.061Z,1.50
2023-08-19T12:56:08.997Z,1.80
2023-08-19T12:58:35.875Z,1.75
2023-08-19T13:01:05.945Z,1.70
2023-08-19T13:03:33.099Z,1.70
2023-08-19T13:06:00.116Z,1.73
2023-08-19T13:08:26.925Z,1.95
2023-08-19T13:10:53.796Z,1.92
2023-08-19T13:13:21.215Z,1.87
2023-08-19T13:15:48.109Z,2.15
2023-08-19T13:18:16.641Z,2.45
2023-08-19T13:20:43.458Z,2.03
2023-08-19T13:23:10.345Z,1.90
2023-08-19T13:25:38.144Z,1.90
2023-08-19T13:28:05.714Z,2.10
2023-08-19T13:30:32.599Z,2.08
2023-08-19T13:32:59.500Z,2.10
2023-08-19T13:35:26.498Z,2.17
2023-08-19T13:37:53.413Z,2.03
2023-08-19T13:40:20.350Z,1.67
2023-08-19T13:42:47.179Z,2.10
2023-08-19T13:45:14.143Z,1.90
2023-08-19T13:47:41.036Z,1.98
2023-08-19T13:50:08.781Z,2.00
2023-08-19T13:52:37.139Z,2.13
2023-08-19T13:55:04.707Z,2.00
2023-08-19T13:57:31.919Z,1.98
2023-08-19T13:59:59.256Z,2.10
2023-08-19T14:02:26.293Z,2.10
2023-08-19T14:04:53.313Z,1.80
2023-08-19T14:07:20.159Z,2.47
2023-08-19T14:09:47.003Z,1.98
2023-08-19T14:12:13.853Z,2.15
2023-08-19T14:14:42.693Z,2.10
2023-08-19T14:17:11.537Z,1.92
2023-08-19T14:19:38.463Z,2.15
2023-08-19T14:22:05.366Z,2.03
2023-08-19T14:24:32.245Z,2.20
2023-08-19T14:26:59.180Z,2.10
2023-08-19T14:29:26.248Z,2.50
2023-08-19T14:31:53.103Z,2.10
2023-08-19T14:34:19.997Z,2.30
2023-08-19T14:36:46.842Z,2.20
2023-08-19T14:39:13.815Z,2.50
2023-08-19T14:41:40.756Z,2.20
2023-08-19T14:44:07.867Z,2.28
2023-08-19T14:46:35.206Z,2.15
2023-08-19T14:49:02.115Z,2.42
2023-08-19T14:51:29.005Z,2.47
2023-08-19T14:53:55.969Z,2.60
2023-08-19T14:56:22.962Z,2.40
2023-08-19T14:58:49.872Z,2.58
2023-08-19T15:01:18.617Z,2.65
2023-08-19T15:03:46.748Z,2.43
2023-08-19T15:06:13.772Z,3.00
2023-08-19T15:08:40.674Z,2.88
2023-08-19T15:11:07.608Z,2.95
2023-08-19T15:13:34.501Z,2.95
2023-08-19T15:16:01.377Z,2.90
2023-08-19T15:18:28.299Z,3.00
2023-08-19T15:20:55.498Z,3.00
2023-08-19T15:23:22.450Z,2.88
2023-08-19T15:25:49.291Z,3.10
2023-08-19T15:28:16.155Z,2.70
2023-08-19T15:30:42.995Z,2.80
2023-08-19T15:33:09.888Z,2.33
2023-08-19T15:35:36.716Z,2.65
2023-08-19T15:38:04.362Z,2.72
2023-08-19T15:40:31.214Z,2.50
2023-08-19T15:42:58.033Z,2.40
2023-08-19T15:45:24.922Z,2.78
2023-08-19T15:47:52.038Z,2.90
2023-08-19T15:50:19.701Z,2.67
2023-08-19T15:52:46.639Z,2.83
2023-08-19T15:55:13.590Z,2.38
2023-08-19T15:57:40.506Z,2.38
2023-08-19T16:00:09.523Z,2.72
2023-08-19T16:02:36.474Z,2.40
2023-08-19T16:05:04.302Z,2.60
2023-08-19T16:07:40.295Z,2.28
2023-08-19T16:10:08.812Z,2.45
2023-08-19T16:12:36.580Z,2.72
2023-08-19T16:15:04.531Z,2.30
2023-08-19T16:17:31.487Z,2.70
2023-08-19T16:19:59.061Z,2.53
2023-08-19T16:25:11.843Z,2.55
2023-08-19T16:27:39.944Z,2.60
2023-08-19T16:30:08.589Z,2.33
2023-08-19T16:32:37.994Z,2.70
2023-08-19T16:35:09.117Z,2.85
2023-08-19T16:37:36.177Z,2.50
2023-08-19T16:40:03.695Z,2.20
2023-08-19T16:42:30.576Z,2.20
2023-08-19T16:44:57.406Z,2.10
2023-08-19T16:47:24.469Z,2.05
2023-08-19T16:49:51.895Z,2.17
2023-08-19T16:52:20.997Z,2.10
2023-08-19T16:54:47.902Z,2.07
2023-08-19T16:57:14.924Z,1.80
2023-08-19T16:59:41.742Z,1.70
2023-08-19T17:02:08.867Z,1.90
2023-08-19T17:04:35.837Z,2.03
2023-08-19T17:07:03.240Z,1.90
2023-08-19T17:09:30.196Z,1.83
2023-08-19T17:11:57.127Z,1.80
2023-08-19T17:14:23.930Z,2.40
2023-08-19T17:16:51.336Z,1.70
2023-08-19T17:19:18.390Z,1.93
2023-08-19T17:21:45.307Z,1.90
2023-08-19T17:24:12.150Z,1.80
2023-08-19T17:26:40.040Z,1.83
2023-08-19T17:29:10.495Z,1.70
2023-08-19T17:31:39.189Z,2.20
2023-08-19T17:34:06.135Z,1.70
2023-08-19T17:36:33.307Z,1.90
2023-08-19T17:39:00.171Z,1.73
2023-08-19T17:41:27.097Z,1.88
2023-08-19T17:43:53.990Z,1.70
2023-08-19T17:46:20.896Z,1.60
2023-08-19T17:48:47.846Z,1.73
2023-08-19T17:51:14.834Z,1.50
2023-08-19T17:53:41.690Z,1.90
2023-08-19T17:56:10.605Z,1.60
2023-08-19T17:58:38.098Z,1.70
2023-08-19T18:01:09.188Z,1.80
2023-08-19T18:03:36.189Z,1.60
2023-08-19T18:06:05.429Z,1.60
2023-08-19T18:08:32.542Z,1.57
2023-08-19T18:10:59.416Z,1.70
2023-08-19T18:13:26.569Z,1.90
2023-08-19T18:15:53.561Z,1.70
2023-08-19T18:18:20.521Z,1.80
2023-08-19T18:20:47.519Z,1.70
2023-08-19T18:23:14.621Z,1.70
2023-08-19T18:25:41.562Z,1.67
2023-08-19T18:28:09.683Z,1.77
2023-08-19T18:30:39.998Z,1.67
2023-08-19T18:33:08.153Z,1.50
2023-08-19T18:35:35.730Z,1.90
2023-08-19T18:38:06.671Z,1.80
2023-08-19T18:40:35.795Z,1.77
2023-08-19T18:43:04.465Z,1.48
2023-08-19T18:45:32.733Z,1.97
2023-08-19T18:48:06.055Z,1.77
2023-08-19T18:50:34.850Z,2.00
2023-08-19T18:53:02.912Z,2.70
2023-08-19T18:55:31.986Z,2.80
2023-08-19T18:57:59.877Z,2.60
2023-08-19T19:00:38.782Z,2.33
2023-08-19T19:03:09.390Z,2.40
2023-08-19T19:05:42.877Z,2.60
2023-08-19T19:08:12.204Z,2.28
2023-08-19T19:10:40.487Z,1.90
2023-08-19T19:13:08.158Z,2.30
2023-08-19T19:15:35.710Z,2.30
2023-08-19T19:18:03.714Z,1.90
2023-08-19T19:20:31.921Z,2.25
2023-08-19T19:23:00.062Z,2.27
2023-08-19T19:25:28.397Z,2.17
2023-08-19T19:31:33.576Z,2.10
2023-08-19T19:34:01.325Z,2.13
2023-08-19T19:36:29.476Z,2.07
2023-08-19T19:38:56.854Z,2.00
2023-08-19T19:41:30.605Z,2.53
2023-08-19T19:43:58.340Z,2.22
2023-08-19T19:46:25.991Z,2.25
2023-08-19T19:48:55.413Z,2.20
2023-08-19T19:51:24.459Z,2.60
2023-08-19T19:54:35.638Z,2.55
2023-08-19T19:57:04.487Z,2.30
2023-08-19T19:59:32.506Z,2.20
2023-08-19T20:02:00.685Z,2.70
2023-08-19T20:04:49.336Z,2.63
2023-08-19T20:10:47.836Z,2.85
2023-08-19T20:13:20.897Z,2.97
2023-08-19T20:15:48.704Z,2.97
2023-08-19T20:18:16.754Z,3.00
2023-08-19T20:21:14.936Z,2.78
2023-08-19T20:23:49.664Z,2.85
2023-08-19T20:26:40.400Z,2.72
2023-08-19T20:29:32.814Z,2.83
2023-08-19T20:32:00.763Z,2.90
2023-08-19T20:34:27.664Z,3.10
2023-08-19T20:36:54.794Z,2.90
2023-08-19T20:39:22.085Z,2.60
2023-08-19T20:41:48.984Z,2.60
2023-08-19T20:44:16.412Z,2.50
2023-08-19T20:46:43.744Z,2.50
2023-08-19T20:49:12.728Z,2.45
2023-08-19T20:51:40.114Z,2.50
2023-08-19T20:54:07.882Z,2.40
2023-08-19T20:56:34.894Z,2.65
2023-08-19T20:59:02.108Z,2.40
2023-08-19T21:01:30.840Z,2.40
2023-08-19T21:03:58.213Z,2.70
2023-08-19T21:06:25.253Z,2.50
2023-08-19T21:08:52.217Z,2.50
2023-08-19T21:11:19.236Z,2.83
2023-08-19T21:13:46.020Z,2.28
2023-08-19T21:16:13.020Z,2.25
2023-08-19T21:18:40.107Z,2.20
2023-08-19T21:21:07.098Z,2.20
2023-08-19T21:23:36.327Z,2.30
2023-08-19T21:26:03.648Z,2.30
2023-08-19T21:28:34.893Z,1.90
2023-08-19T21:31:02.212Z,2.30
2023-08-19T21:33:29.246Z,2.17
2023-08-19T21:35:56.505Z,2.28
2023-08-19T21:38:23.702Z,2.20
2023-08-19T21:40:57.158Z,2.30
2023-08-19T21:43:24.832Z,2.60
2023-08-19T21:45:57.742Z,2.60
2023-08-19T21:48:25.218Z,2.75
2023-08-19T21:50:52.490Z,2.78
2023-08-19T21:53:20.316Z,2.38
2023-08-19T21:55:47.332Z,2.60
2023-08-19T21:58:14.508Z,2.30
2023-08-19T22:00:41.418Z,2.80
2023-08-19T22:03:09.334Z,2.75
2023-08-19T22:05:49.873Z,2.05
2023-08-19T22:08:17.844Z,2.03
2023-08-19T22:10:45.443Z,2.05
2023-08-19T22:13:13.180Z,2.55
2023-08-19T22:15:41.882Z,1.88
2023-08-19T22:18:09.617Z,2.13
2023-08-19T22:23:06.522Z,2.00
2023-08-19T22:25:33.762Z,1.90
2023-08-19T22:28:00.648Z,2.03
2023-08-19T22:30:27.556Z,2.10
2023-08-19T22:32:54.574Z,1.90
2023-08-19T22:35:21.724Z,1.85
2023-08-19T22:37:48.570Z,1.90
2023-08-19T22:40:15.678Z,2.30
2023-08-19T22:42:42.549Z,2.30
2023-08-19T22:45:09.889Z,2.27
2023-08-19T22:47:37.473Z,2.20
2023-08-19T22:50:05.301Z,2.17
2023-08-19T22:52:32.308Z,2.10
2023-08-19T22:54:59.464Z,2.17
2023-08-19T22:57:26.475Z,1.90
2023-08-19T22:59:55.023Z,2.20
2023-08-19T23:02:22.181Z,2.10
2023-08-19T23:04:49.206Z,1.80
2023-08-19T23:07:16.101Z,2.10
2023-08-19T23:09:42.985Z,2.10
2023-08-19T23:12:10.253Z,2.00
2023-08-19T23:14:37.414Z,2.10
2023-08-19T23:17:04.574Z,2.40
2023-08-19T23:19:32.549Z,2.20
2023-08-19T23:21:59.783Z,2.20
2023-08-19T23:24:26.826Z,2.15
2023-08-19T23:26:53.726Z,2.13
2023-08-19T23:29:20.521Z,2.10
2023-08-19T23:31:47.400Z,2.03
2023-08-19T23:34:14.251Z,2.30
2023-08-19T23:36:41.178Z,2.63
2023-08-19T23:39:08.699Z,2.05
2023-08-19T23:41:36.389Z,1.88
2023-08-19T23:44:03.838Z,2.20
2023-08-19T23:46:30.725Z,2.40
2023-08-19T23:48:58.056Z,2.40
2023-08-19T23:51:26.737Z,2.20
2023-08-19T23:53:57.209Z,2.20
2023-08-19T23:56:24.419Z,2.20
2023-08-19T23:58:51.778Z,1.93
